Time;durP1;ratioP1;P1;durP2;ratioP2;P2;SDS_P1;SDS_P2;PMS_P1;PMS_P2;Temp;Humidity;BMP_temperature;BMP_pressure;BME280_temperature;BME280_humidity;BME280_pressure;Samples;Min_cycle;Max_cycle;Signal;HPM_P1;HPM_P2
2022/07/21 03:01:18;;;;;;;64.53;30.15;;;19.00;99.90;;;;;;6283733;22;20335;-86
2022/07/21 03:03:44;;;;;;;72.93;33.10;;;19.00;99.90;;;;;;6314062;22;20014;-87
2022/07/21 03:06:10;;;;;;;71.80;33.60;;;19.00;99.90;;;;;;6313342;22;20060;-87
2022/07/21 03:08:36;;;;;;;67.60;33.05;;;19.00;99.90;;;;;;6287170;22;20059;-86
2022/07/21 03:11:02;;;;;;;67.60;32.90;;;19.00;99.90;;;;;;6340664;22;20011;-84
2022/07/21 03:13:28;;;;;;;58.40;31.50;;;19.00;99.90;;;;;;6340607;22;20038;-85
2022/07/21 03:15:54;;;;;;;75.70;34.47;;;18.90;99.90;;;;;;6287571;22;20052;-87
2022/07/21 03:18:19;;;;;;;58.72;32.97;;;18.90;99.90;;;;;;6340587;22;20056;-86
2022/07/21 03:20:45;;;;;;;48.78;29.45;;;18.90;99.90;;;;;;6312341;22;20015;-85
2022/07/21 03:23:12;;;;;;;46.50;27.55;;;18.80;99.90;;;;;;6312566;22;20061;-85
2022/07/21 03:25:38;;;;;;;39.20;25.63;;;18.80;99.90;;;;;;6312110;22;20011;-86
2022/07/21 03:28:05;;;;;;;39.60;24.75;;;18.70;99.90;;;;;;6313260;22;20014;-85
2022/07/21 03:30:31;;;;;;;34.38;22.58;;;18.60;99.90;;;;;;6286076;22;20499;-86
2022/07/21 03:32:57;;;;;;;34.03;22.60;;;18.50;99.90;;;;;;6312011;22;20053;-84
2022/07/21 03:35:22;;;;;;;34.78;23.48;;;18.50;99.90;;;;;;6340484;22;20014;-85
2022/07/21 03:37:52;;;;;;;34.20;24.13;;;18.40;99.90;;;;;;6286374;22;20052;-87
2022/07/21 03:40:22;;;;;;;32.22;22.70;;;18.40;99.90;;;;;;6286598;22;20471;-88
2022/07/21 03:42:52;;;;;;;30.63;22.40;;;18.30;99.90;;;;;;6286906;22;20022;-85
2022/07/21 03:45:19;;;;;;;26.65;20.35;;;18.30;99.90;;;;;;6340353;22;20378;-89
2022/07/21 03:47:45;;;;;;;32.80;22.88;;;18.30;99.90;;;;;;6286825;22;20014;-85
2022/07/21 03:50:11;;;;;;;31.48;21.92;;;18.30;99.90;;;;;;6340524;22;20018;-85
2022/07/21 03:52:37;;;;;;;33.22;23.00;;;18.30;99.90;;;;;;6312514;22;20065;-85
2022/07/21 03:55:09;;;;;;;31.88;22.20;;;18.30;99.90;;;;;;6287167;22;20014;-85
2022/07/21 03:57:40;;;;;;;36.80;24.77;;;18.20;99.90;;;;;;6286683;22;20015;-88
2022/07/21 04:00:08;;;;;;;38.88;24.77;;;18.30;99.90;;;;;;6312200;22;20010;-84
2022/07/21 04:02:34;;;;;;;43.45;26.52;;;18.40;99.90;;;;;;6312170;22;20037;-87
2022/07/21 04:05:00;;;;;;;43.30;27.10;;;18.40;99.90;;;;;;6312058;22;20011;-84
2022/07/21 04:07:26;;;;;;;46.83;29.63;;;18.40;99.90;;;;;;6340117;22;20324;-84
2022/07/21 04:09:52;;;;;;;43.67;29.02;;;18.40;99.90;;;;;;6311812;22;20014;-85
2022/07/21 04:12:17;;;;;;;48.05;29.55;;;18.40;99.90;;;;;;6311645;22;20010;-87
2022/07/21 04:14:43;;;;;;;45.03;28.08;;;18.40;99.90;;;;;;6312244;22;20374;-84
2022/07/21 04:17:09;;;;;;;48.17;29.27;;;18.50;99.90;;;;;;6312383;22;20018;-86
2022/07/21 04:19:34;;;;;;;42.22;28.17;;;18.40;99.90;;;;;;6339678;22;20086;-84
2022/07/21 04:22:00;;;;;;;51.58;31.73;;;18.50;99.90;;;;;;6286321;22;20048;-80
2022/07/21 04:24:26;;;;;;;46.80;29.73;;;18.50;99.90;;;;;;6311867;22;20015;-87
2022/07/21 04:26:51;;;;;;;47.33;30.52;;;18.40;99.90;;;;;;6312556;22;20051;-83
2022/07/21 04:29:17;;;;;;;53.53;32.75;;;18.40;99.90;;;;;;6312137;22;20089;-85
2022/07/21 04:31:42;;;;;;;52.38;32.28;;;18.50;99.90;;;;;;6311912;22;20087;-86
2022/07/21 04:34:08;;;;;;;53.75;31.65;;;18.40;99.90;;;;;;6340111;22;20007;-85
2022/07/21 04:36:34;;;;;;;54.33;32.47;;;18.50;99.90;;;;;;6311969;22;20522;-87
2022/07/21 04:38:59;;;;;;;55.50;32.13;;;18.50;99.90;;;;;;6339788;22;20007;-84
2022/07/21 04:41:25;;;;;;;57.08;32.58;;;18.40;99.90;;;;;;6339722;22;20010;-84
2022/07/21 04:43:50;;;;;;;51.88;31.73;;;18.50;99.90;;;;;;6311880;22;20459;-84
2022/07/21 04:46:16;;;;;;;58.20;33.80;;;18.50;99.90;;;;;;6312145;22;20011;-87
2022/07/21 04:48:42;;;;;;;53.42;33.40;;;18.50;99.90;;;;;;6312084;22;20015;-86
2022/07/21 04:51:07;;;;;;;50.72;31.60;;;18.50;99.90;;;;;;6340163;22;20011;-83
2022/07/21 04:53:33;;;;;;;51.75;31.80;;;18.50;99.90;;;;;;6339258;22;20014;-86
2022/07/21 04:55:58;;;;;;;58.92;33.97;;;18.40;99.90;;;;;;6312075;22;20021;-86
2022/07/21 04:58:24;;;;;;;59.28;34.10;;;18.40;99.90;;;;;;6311922;22;20090;-83
2022/07/21 05:00:50;;;;;;;58.17;34.35;;;18.40;99.90;;;;;;6339553;22;20083;-84
2022/07/21 05:03:15;;;;;;;59.60;34.22;;;18.50;99.90;;;;;;6311876;22;20056;-85
2022/07/21 05:05:41;;;;;;;69.15;37.60;;;18.50;99.90;;;;;;6311525;22;20017;-84
2022/07/21 05:08:07;;;;;;;72.65;41.03;;;18.50;99.90;;;;;;6311546;22;20011;-87
2022/07/21 05:10:32;;;;;;;75.07;42.13;;;18.50;99.90;;;;;;6311744;22;20018;-84
2022/07/21 05:12:58;;;;;;;79.00;42.60;;;18.60;99.90;;;;;;6311969;22;20050;-84
2022/07/21 05:15:24;;;;;;;79.75;43.65;;;18.60;99.90;;;;;;6312215;22;20015;-84
2022/07/21 05:17:49;;;;;;;86.25;44.05;;;18.50;99.90;;;;;;6311833;22;20428;-85
2022/07/21 05:20:15;;;;;;;82.43;45.03;;;18.60;99.90;;;;;;6312046;22;20426;-86
2022/07/21 05:22:41;;;;;;;81.88;44.78;;;18.60;99.90;;;;;;6286968;22;20096;-86
2022/07/21 05:25:07;;;;;;;79.32;44.38;;;18.60;99.90;;;;;;6313598;22;20395;-85
2022/07/21 05:27:33;;;;;;;72.53;42.03;;;18.60;99.90;;;;;;6313681;22;20007;-85
2022/07/21 05:29:59;;;;;;;73.85;42.30;;;18.60;99.90;;;;;;6313360;22;20056;-86
2022/07/21 05:32:24;;;;;;;72.28;41.97;;;18.60;99.90;;;;;;6313611;22;20320;-86
2022/07/21 05:34:50;;;;;;;57.10;37.33;;;18.60;99.90;;;;;;6314841;22;20019;-86
2022/07/21 05:37:16;;;;;;;57.45;36.30;;;18.60;99.90;;;;;;6313973;22;20015;-88
2022/07/21 05:39:41;;;;;;;61.83;38.65;;;18.60;99.90;;;;;;6341161;22;20003;-84
2022/07/21 05:42:07;;;;;;;53.90;34.78;;;18.60;99.90;;;;;;6313376;22;20018;-84
2022/07/21 05:44:33;;;;;;;53.00;34.90;;;18.60;99.90;;;;;;6287771;22;20437;-85
2022/07/21 05:46:58;;;;;;;51.65;33.25;;;18.50;99.90;;;;;;6287007;22;20007;-88
2022/07/21 05:49:24;;;;;;;44.92;30.05;;;18.50;99.90;;;;;;6313134;22;20443;-85
2022/07/21 05:51:50;;;;;;;37.30;27.77;;;18.40;99.90;;;;;;6313310;22;20015;-86
2022/07/21 05:54:15;;;;;;;37.47;27.83;;;18.40;99.90;;;;;;6313754;22;20011;-85
2022/07/21 05:56:41;;;;;;;42.83;29.30;;;18.40;99.90;;;;;;6313251;22;20007;-85
2022/07/21 05:59:07;;;;;;;39.65;26.83;;;18.30;99.90;;;;;;6313299;22;20051;-86
2022/07/21 06:01:33;;;;;;;42.30;26.85;;;18.30;99.90;;;;;;6312775;22;20003;-85
2022/07/21 06:04:03;;;;;;;40.92;28.15;;;18.30;99.90;;;;;;6312712;22;20096;-86
2022/07/21 06:06:29;;;;;;;41.53;28.10;;;18.30;99.90;;;;;;6340348;22;20006;-87
2022/07/21 06:08:55;;;;;;;45.08;28.67;;;18.40;99.90;;;;;;6313559;22;20042;-85
2022/07/21 06:11:21;;;;;;;41.80;27.50;;;18.40;99.90;;;;;;6340854;22;20493;-83
2022/07/21 06:13:48;;;;;;;36.65;27.10;;;18.40;99.90;;;;;;6286794;22;20362;-87
2022/07/21 06:16:14;;;;;;;40.20;26.23;;;18.40;99.90;;;;;;6314046;22;20015;-85
2022/07/21 06:18:50;;;;;;;;;;;;;;;;;;;;;
2022/07/21 06:21:17;;;;;;;38.92;26.85;;;18.40;99.90;;;;;;6313797;22;20025;-86
2022/07/21 06:23:43;;;;;;;40.92;27.33;;;18.50;99.90;;;;;;6341884;22;20018;-85
2022/07/21 06:26:09;;;;;;;43.47;29.15;;;18.40;99.90;;;;;;6287788;22;20018;-86
2022/07/21 06:28:34;;;;;;;45.58;29.50;;;18.40;99.90;;;;;;6313343;22;20015;-88
2022/07/21 06:31:00;;;;;;;39.80;27.05;;;18.40;99.90;;;;;;6313920;22;20314;-85
2022/07/21 06:33:26;;;;;;;46.40;30.23;;;18.50;99.90;;;;;;6312537;22;20037;-83
2022/07/21 06:35:51;;;;;;;47.28;31.05;;;18.50;99.90;;;;;;6312706;22;20011;-86
2022/07/21 06:38:17;;;;;;;47.92;30.08;;;18.60;99.90;;;;;;6287317;22;20444;-86
2022/07/21 06:40:43;;;;;;;47.40;30.20;;;18.60;99.90;;;;;;6286545;22;20014;-87
2022/07/21 06:43:09;;;;;;;50.00;30.83;;;18.60;99.90;;;;;;6312611;22;20067;-87
2022/07/21 06:45:34;;;;;;;52.60;32.25;;;18.60;99.90;;;;;;6312461;22;20010;-86
2022/07/21 06:48:02;;;;;;;47.95;31.05;;;18.60;99.90;;;;;;6312811;22;20436;-89
2022/07/21 06:50:28;;;;;;;52.88;32.13;;;18.60;99.90;;;;;;6312649;22;20073;-87
2022/07/21 06:52:53;;;;;;;50.25;31.35;;;18.60;99.90;;;;;;6313161;22;20015;-86
2022/07/21 06:55:19;;;;;;;52.13;31.02;;;18.60;99.90;;;;;;6312928;22;20022;-87
2022/07/21 06:57:44;;;;;;;49.47;31.60;;;18.50;99.90;;;;;;6313071;22;20010;-86
2022/07/21 07:00:11;;;;;;;47.55;31.38;;;18.50;99.90;;;;;;6312872;22;20082;-87
2022/07/21 07:02:36;;;;;;;51.92;32.38;;;18.50;99.90;;;;;;6312445;22;20088;-87
2022/07/21 07:05:03;;;;;;;49.97;32.92;;;18.60;99.90;;;;;;6313079;22;20046;-87
2022/07/21 07:07:30;;;;;;;50.35;32.38;;;18.60;99.90;;;;;;6286672;22;20018;-85
2022/07/21 07:09:56;;;;;;;52.17;33.53;;;18.60;99.90;;;;;;6312670;22;20015;-86
2022/07/21 07:12:22;;;;;;;50.63;33.17;;;18.60;99.90;;;;;;6312277;22;20046;-86
2022/07/21 07:14:47;;;;;;;53.33;33.10;;;18.70;99.90;;;;;;6312303;22;20018;-86
2022/07/21 07:17:18;;;;;;;52.45;32.95;;;18.70;99.90;;;;;;6312624;22;20015;-87
2022/07/21 07:19:45;;;;;;;53.63;33.13;;;18.70;99.90;;;;;;6313373;22;20082;-86
2022/07/21 07:22:11;;;;;;;57.65;35.47;;;18.70;99.90;;;;;;6313472;22;20017;-87
2022/07/21 07:24:36;;;;;;;53.17;34.30;;;18.80;99.90;;;;;;6313170;22;20086;-86
2022/07/21 07:27:02;;;;;;;53.45;34.22;;;18.80;99.90;;;;;;6287592;22;20010;-86
2022/07/21 07:29:28;;;;;;;60.20;36.63;;;18.80;99.90;;;;;;6313125;22;20003;-88
2022/07/21 07:31:54;;;;;;;58.75;37.40;;;18.80;99.90;;;;;;6313721;22;20344;-86
2022/07/21 07:34:21;;;;;;;56.50;36.83;;;18.80;99.90;;;;;;6313455;22;20138;-86
2022/07/21 07:36:46;;;;;;;58.25;37.17;;;18.80;99.90;;;;;;6310863;22;20098;-86
2022/07/21 07:39:15;;;;;;;54.13;35.53;;;18.80;99.90;;;;;;6310882;22;20042;-88
2022/07/21 07:41:42;;;;;;;56.72;36.75;;;18.80;99.90;;;;;;6286393;22;20045;-87
2022/07/21 07:44:08;;;;;;;61.53;38.50;;;18.80;99.90;;;;;;6311583;22;20460;-87
2022/07/21 07:46:33;;;;;;;61.88;40.15;;;18.70;99.90;;;;;;6311507;22;20011;-85
2022/07/21 07:48:59;;;;;;;63.88;40.83;;;18.70;99.90;;;;;;6311472;22;20014;-86
2022/07/21 07:51:25;;;;;;;73.68;43.30;;;18.70;99.90;;;;;;6288002;22;20010;-86
2022/07/21 07:53:51;;;;;;;64.95;39.97;;;18.70;99.90;;;;;;6341431;22;20436;-85
2022/07/21 07:56:17;;;;;;;66.85;40.72;;;18.70;99.90;;;;;;6313684;22;20010;-87
2022/07/21 07:58:42;;;;;;;68.75;40.05;;;18.70;99.90;;;;;;6313438;22;20003;-86
2022/07/21 08:01:09;;;;;;;66.43;41.10;;;18.70;99.90;;;;;;6287411;22;20017;-86
2022/07/21 08:03:35;;;;;;;73.80;43.50;;;18.70;99.90;;;;;;6313651;22;20132;-85
2022/07/21 08:06:03;;;;;;;72.20;43.55;;;18.70;99.90;;;;;;6312690;22;20466;-84
2022/07/21 08:08:30;;;;;;;68.45;41.97;;;18.70;99.90;;;;;;6313583;22;20007;-85
2022/07/21 08:10:56;;;;;;;70.15;43.40;;;18.70;99.90;;;;;;6287162;22;20022;-86
2022/07/21 08:13:22;;;;;;;72.28;43.70;;;18.70;99.90;;;;;;6288511;22;20069;-87
2022/07/21 08:15:55;;;;;;;68.40;41.88;;;18.70;99.90;;;;;;6286404;22;20448;-86
2022/07/21 08:18:20;;;;;;;72.22;42.30;;;18.60;99.90;;;;;;6339476;22;20086;-86
2022/07/21 08:20:47;;;;;;;72.15;44.78;;;18.60;99.90;;;;;;6312117;22;20042;-86
2022/07/21 08:23:14;;;;;;;68.68;44.13;;;18.70;99.90;;;;;;6313897;22;20014;-87
2022/07/21 08:25:40;;;;;;;72.95;43.10;;;18.70;99.90;;;;;;6313305;22;20042;-86
2022/07/21 08:28:06;;;;;;;73.28;43.20;;;18.80;99.90;;;;;;6341187;22;20433;-85
2022/07/21 08:30:32;;;;;;;77.53;44.65;;;18.80;99.90;;;;;;6341398;22;20011;-87
2022/07/21 08:32:58;;;;;;;69.78;42.53;;;18.80;99.90;;;;;;6312624;22;20022;-86
2022/07/21 08:35:24;;;;;;;68.05;42.75;;;18.80;99.90;;;;;;6339861;22;20003;-86
2022/07/21 08:37:55;;;;;;;67.80;41.95;;;18.80;99.90;;;;;;6312513;22;20490;-87
2022/07/21 08:40:24;;;;;;;63.97;39.97;;;18.90;99.90;;;;;;6312491;22;20010;-88
2022/07/21 08:42:51;;;;;;;68.22;41.75;;;18.90;99.90;;;;;;6312549;22;20060;-86
2022/07/21 08:45:16;;;;;;;68.80;42.97;;;18.90;99.90;;;;;;6312469;22;20021;-88
2022/07/21 08:47:42;;;;;;;68.55;42.40;;;18.90;99.90;;;;;;6341674;22;20010;-88
2022/07/21 08:50:09;;;;;;;75.25;43.55;;;18.90;99.90;;;;;;6340899;22;20022;-88
2022/07/21 08:52:35;;;;;;;72.28;42.28;;;18.90;99.90;;;;;;6312495;22;20025;-87
2022/07/21 08:55:01;;;;;;;72.45;43.78;;;18.90;99.90;;;;;;6313427;22;20022;-85
2022/07/21 08:57:27;;;;;;;79.88;45.88;;;18.90;99.90;;;;;;6313279;22;20076;-85
2022/07/21 08:59:53;;;;;;;76.43;43.83;;;18.90;99.90;;;;;;6288961;22;20019;-88
2022/07/21 09:02:30;;;;;;;75.03;46.08;;;18.90;99.90;;;;;;6342838;22;20007;-87
2022/07/21 09:04:57;;;;;;;75.50;43.85;;;19.00;99.90;;;;;;6315098;22;20448;-87
2022/07/21 09:07:23;;;;;;;75.88;44.90;;;19.00;99.90;;;;;;6289330;22;20359;-87
2022/07/21 09:09:59;;;;;;;69.70;41.78;;;19.00;99.90;;;;;;6314291;22;20348;-87
2022/07/21 09:12:26;;;;;;;70.75;43.13;;;19.00;99.90;;;;;;6314730;22;20309;-87
2022/07/21 09:14:51;;;;;;;75.75;45.45;;;19.00;99.90;;;;;;6289410;22;20010;-88
2022/07/21 09:17:18;;;;;;;76.93;44.17;;;19.00;99.90;;;;;;6289627;22;20011;-87
2022/07/21 09:19:46;;;;;;;74.65;42.67;;;19.00;99.90;;;;;;6315107;22;20428;-87
2022/07/21 09:22:18;;;;;;;71.60;43.00;;;19.10;99.90;;;;;;6314621;22;20011;-87
2022/07/21 09:24:49;;;;;;;72.72;43.03;;;19.10;99.90;;;;;;6315008;22;20425;-87
2022/07/21 09:27:25;;;;;;;71.53;42.58;;;19.10;99.90;;;;;;6315074;22;20293;-87
2022/07/21 09:29:59;;;;;;;70.75;43.65;;;19.10;99.90;;;;;;6314091;22;20021;-88
2022/07/21 09:32:27;;;;;;;76.20;44.22;;;19.20;99.90;;;;;;6288769;22;20014;-88
2022/07/21 09:35:01;;;;;;;69.00;42.17;;;19.10;99.90;;;;;;6288593;22;20053;-87
2022/07/21 09:37:27;;;;;;;68.32;41.78;;;19.20;99.90;;;;;;6315578;22;20049;-86
2022/07/21 09:40:08;;;;;;;70.50;43.53;;;19.20;99.90;;;;;;6287986;22;20313;-88
2022/07/21 09:42:49;;;;;;;68.07;39.95;;;19.20;99.90;;;;;;6314705;22;20015;-85
2022/07/21 09:45:17;;;;;;;65.53;41.58;;;19.30;99.90;;;;;;6314067;22;20452;-86
2022/07/21 09:47:43;;;;;;;64.72;40.03;;;19.30;99.90;;;;;;6287763;22;20377;-86
2022/07/21 09:50:13;;;;;;;64.63;38.65;;;19.30;99.90;;;;;;6313440;22;20010;-86
2022/07/21 09:52:41;;;;;;;69.20;40.33;;;19.30;99.90;;;;;;6288050;22;20090;-87
2022/07/21 09:55:12;;;;;;;67.07;41.42;;;19.30;99.90;;;;;;6313784;22;20022;-87
2022/07/21 09:57:38;;;;;;;67.25;40.20;;;19.30;99.90;;;;;;6313608;22;20006;-89
2022/07/21 10:00:10;;;;;;;63.15;40.92;;;19.40;99.90;;;;;;6313356;22;20440;-87
2022/07/21 10:02:35;;;;;;;66.25;40.53;;;19.40;99.90;;;;;;6287940;22;20090;-87
2022/07/21 10:05:06;;;;;;;65.85;41.47;;;19.50;99.90;;;;;;6315002;22;20011;-87
2022/07/21 10:07:35;;;;;;;62.80;39.72;;;19.50;99.90;;;;;;6293379;22;20006;-88
2022/07/21 10:10:00;;;;;;;63.38;38.20;;;19.40;99.90;;;;;;6317103;22;20466;-87
2022/07/21 10:12:27;;;;;;;64.80;41.00;;;19.50;99.90;;;;;;6290298;22;20026;-88
2022/07/21 10:14:53;;;;;;;64.18;39.50;;;19.50;99.90;;;;;;6290176;22;20011;-86
2022/07/21 10:17:21;;;;;;;64.68;39.75;;;19.50;99.90;;;;;;6293412;22;20033;-84
2022/07/21 10:20:11;;;;;;;64.45;39.83;;;19.50;99.90;;;;;;6319922;22;20050;-79
2022/07/21 10:22:55;;;;;;;66.18;39.38;;;19.60;99.90;;;;;;6332617;22;20467;-88
2022/07/21 10:25:22;;;;;;;64.45;40.45;;;19.80;99.90;;;;;;6316251;22;20022;-87
2022/07/21 10:28:09;;;;;;;57.95;38.00;;;19.80;99.90;;;;;;6289367;22;20011;-86
2022/07/21 10:30:41;;;;;;;55.00;36.78;;;19.80;99.90;;;;;;6314761;22;20011;-86
2022/07/21 10:33:07;;;;;;;52.47;36.00;;;19.90;99.90;;;;;;6314526;22;20064;-88
2022/07/21 10:35:33;;;;;;;56.42;36.00;;;19.90;99.90;;;;;;6341854;22;20011;-88
2022/07/21 10:38:00;;;;;;;57.72;37.00;;;20.00;99.90;;;;;;6313121;22;20470;-87
2022/07/21 10:40:26;;;;;;;52.00;36.42;;;20.10;99.90;;;;;;6313337;22;20014;-88
2022/07/21 10:43:01;;;;;;;57.42;37.40;;;20.00;99.90;;;;;;6288522;22;20051;-87
2022/07/21 10:45:34;;;;;;;;;;;20.10;99.90;;;;;;6314196;22;20069;-87
2022/07/21 10:48:01;;;;;;;50.63;35.47;;;20.20;99.90;;;;;;6287928;22;19910;-88
2022/07/21 10:50:39;;;;;;;53.25;36.47;;;20.10;99.90;;;;;;6313919;22;20019;-86
2022/07/21 10:53:17;;;;;;;53.55;37.55;;;20.10;99.90;;;;;;6288332;22;20408;-87
2022/07/21 10:55:54;;;;;;;57.75;37.15;;;20.10;99.90;;;;;;6340684;22;20011;-88
2022/07/21 10:58:24;;;;;;;56.60;37.42;;;20.10;99.90;;;;;;6313429;22;20011;-87
2022/07/21 11:00:59;;;;;;;59.90;39.85;;;20.00;99.90;;;;;;6312497;22;20010;-89
2022/07/21 11:03:31;;;;;;;55.88;37.22;;;20.00;99.90;;;;;;6313189;22;20463;-88
2022/07/21 11:06:05;;;;;;;58.47;36.88;;;20.00;99.90;;;;;;6313019;22;20010;-88
2022/07/21 11:08:33;;;;;;;62.17;37.85;;;20.00;99.90;;;;;;6313552;22;20014;-87
2022/07/21 11:11:19;;;;;;;54.53;37.78;;;20.00;99.90;;;;;;6340940;22;20072;-88
2022/07/21 11:14:09;;;;;;;58.88;37.60;;;20.00;99.90;;;;;;6313584;22;20011;-88
2022/07/21 11:16:41;;;;;;;55.53;38.90;;;19.90;99.90;;;;;;6287792;22;20049;-89
2022/07/21 11:19:30;;;;;;;59.30;39.40;;;19.90;99.90;;;;;;6313085;22;20098;-87
2022/07/21 11:21:58;;;;;;;59.80;39.55;;;19.90;99.90;;;;;;6313255;22;20493;-89
2022/07/21 11:24:26;;;;;;;62.83;41.00;;;19.80;99.90;;;;;;6313463;22;20090;-88
2022/07/21 11:27:05;;;;;;;59.78;39.53;;;19.80;99.90;;;;;;6286888;22;20018;-87
2022/07/21 11:29:32;;;;;;;55.40;38.15;;;19.90;99.90;;;;;;6312779;22;20010;-87
2022/07/21 11:32:01;;;;;;;56.85;37.90;;;19.80;99.90;;;;;;6340280;22;20007;-89
2022/07/21 11:34:46;;;;;;;59.55;38.33;;;19.80;99.90;;;;;;6286656;22;20451;-88
2022/07/21 11:37:16;;;;;;;58.08;38.42;;;19.80;99.90;;;;;;6312576;22;20017;-86
2022/07/21 11:39:42;;;;;;;60.75;39.63;;;19.70;99.90;;;;;;6312165;22;20018;-87
2022/07/21 11:42:12;;;;;;;65.22;40.60;;;19.70;99.90;;;;;;6312340;22;20007;-88
2022/07/21 11:44:40;;;;;;;63.05;41.15;;;19.70;99.90;;;;;;6312705;22;20040;-87
2022/07/21 11:47:07;;;;;;;69.07;43.85;;;19.60;99.90;;;;;;6313109;22;20011;-87
2022/07/21 11:49:36;;;;;;;67.57;42.70;;;19.60;99.90;;;;;;6312701;22;20006;-87
2022/07/21 11:52:11;;;;;;;52.58;32.13;;;19.60;99.90;;;;;;6312967;22;20011;-87
2022/07/21 11:54:43;;;;;;;40.13;26.50;;;19.60;99.90;;;;;;6313138;22;20022;-87
2022/07/21 11:57:09;;;;;;;37.80;24.70;;;19.70;99.90;;;;;;6312901;22;20341;-89
2022/07/21 11:59:37;;;;;;;35.58;24.48;;;19.60;99.90;;;;;;6287447;22;20061;-88
2022/07/21 12:02:03;;;;;;;37.03;23.23;;;19.60;99.90;;;;;;6312803;22;20019;-87
2022/07/21 12:04:35;;;;;;;34.42;23.80;;;19.60;99.90;;;;;;6312925;22;20011;-87
2022/07/21 12:07:03;;;;;;;33.05;23.83;;;19.60;99.90;;;;;;6341101;22;20072;-87
2022/07/21 12:09:29;;;;;;;38.78;25.65;;;19.60;99.90;;;;;;6340822;22;20021;-85
2022/07/21 12:11:54;;;;;;;38.47;25.67;;;19.60;99.90;;;;;;6312203;22;20355;-88
2022/07/21 12:14:22;;;;;;;35.65;25.00;;;19.50;99.90;;;;;;6312524;22;20046;-88
2022/07/21 12:16:52;;;;;;;29.60;22.60;;;19.60;99.90;;;;;;6312694;22;20010;-87
2022/07/21 12:19:19;;;;;;;31.45;21.92;;;19.60;99.90;;;;;;6286666;22;20139;-86
2022/07/21 12:21:48;;;;;;;31.83;20.65;;;19.60;99.90;;;;;;6312287;22;20065;-86
2022/07/21 12:24:13;;;;;;;28.63;20.77;;;19.70;99.90;;;;;;6312286;22;20003;-87
2022/07/21 12:26:39;;;;;;;26.33;19.27;;;19.70;99.90;;;;;;6312582;22;20152;-87
2022/07/21 12:29:05;;;;;;;24.70;19.35;;;19.70;99.90;;;;;;6286765;22;20017;-86
2022/07/21 12:31:34;;;;;;;23.10;17.65;;;19.70;99.90;;;;;;6286548;22;20017;-86
2022/07/21 12:34:11;;;;;;;19.48;16.98;;;19.70;99.90;;;;;;6314342;22;20068;-86
2022/07/21 12:36:37;;;;;;;20.95;16.95;;;19.70;99.90;;;;;;6314324;22;20025;-86
2022/07/21 12:42:10;;;;;;;17.50;14.38;;;19.70;99.90;;;;;;6317548;22;20478;-86
2022/07/21 12:44:37;;;;;;;19.08;16.20;;;19.70;99.90;;;;;;6316104;22;20014;-86
2022/07/21 12:47:32;;;;;;;17.08;15.20;;;19.60;99.90;;;;;;6313684;22;20021;-86
2022/07/21 12:50:04;;;;;;;18.80;15.93;;;19.60;99.90;;;;;;6282230;22;20007;-88
2022/07/21 12:52:30;;;;;;;21.58;17.33;;;19.60;99.90;;;;;;6313531;22;20131;-85
2022/07/21 12:54:58;;;;;;;21.23;17.02;;;19.50;99.90;;;;;;6314192;22;20015;-86
2022/07/21 12:57:32;;;;;;;21.15;17.08;;;19.40;99.90;;;;;;6313906;22;20010;-85
2022/07/21 12:59:58;;;;;;;22.10;18.03;;;19.40;99.90;;;;;;6313918;22;20067;-84
2022/07/21 13:02:25;;;;;;;24.20;19.00;;;19.40;99.90;;;;;;6289015;22;20058;-86
2022/07/21 13:04:51;;;;;;;22.20;18.17;;;19.40;99.90;;;;;;6314035;22;20015;-83
2022/07/21 13:07:17;;;;;;;21.80;17.08;;;19.40;99.90;;;;;;6313834;22;20022;-85
2022/07/21 13:09:44;;;;;;;24.25;19.10;;;19.30;99.90;;;;;;6313637;22;20081;-86
2022/07/21 13:12:14;;;;;;;21.60;18.27;;;19.30;99.90;;;;;;6287824;22;20017;-86
2022/07/21 13:14:41;;;;;;;24.23;19.17;;;19.40;99.90;;;;;;6288123;22;20026;-86
2022/07/21 13:17:08;;;;;;;23.80;18.23;;;19.40;99.90;;;;;;6288086;22;20090;-85
2022/07/21 13:19:36;;;;;;;23.00;18.23;;;19.40;99.90;;;;;;6313789;22;20007;-85
2022/07/21 13:22:02;;;;;;;22.92;18.08;;;19.50;99.90;;;;;;6288466;22;20011;-86
2022/07/21 13:24:28;;;;;;;22.30;16.25;;;19.40;99.90;;;;;;6288422;22;20011;-87
2022/07/21 13:26:54;;;;;;;20.73;16.50;;;19.40;99.90;;;;;;6313593;22;20128;-86
2022/07/21 13:29:20;;;;;;;23.58;18.02;;;19.40;99.90;;;;;;6313995;22;20049;-86
2022/07/21 13:31:46;;;;;;;20.00;16.20;;;19.40;99.90;;;;;;6287378;22;20050;-86
2022/07/21 13:34:12;;;;;;;19.48;16.52;;;19.40;99.90;;;;;;6341856;22;20011;-86
2022/07/21 13:36:38;;;;;;;23.15;18.25;;;19.40;99.90;;;;;;6313905;22;20011;-86
2022/07/21 13:39:05;;;;;;;21.73;17.20;;;19.40;99.90;;;;;;6314020;22;20356;-86
2022/07/21 13:41:32;;;;;;;22.73;17.60;;;19.50;99.90;;;;;;6313993;22;20015;-85
2022/07/21 13:43:59;;;;;;;21.23;16.63;;;19.50;99.90;;;;;;6313511;22;20038;-87
2022/07/21 13:46:25;;;;;;;23.40;17.83;;;19.60;99.90;;;;;;6314113;22;20538;-88
2022/07/21 13:48:52;;;;;;;20.83;17.60;;;19.60;99.90;;;;;;6314097;22;20006;-86
2022/07/21 13:51:18;;;;;;;23.15;17.70;;;19.60;99.90;;;;;;6342035;22;20010;-86
2022/07/21 13:53:46;;;;;;;22.30;17.77;;;19.70;99.90;;;;;;6287618;22;20046;-86
2022/07/21 13:56:12;;;;;;;18.92;15.57;;;19.70;99.90;;;;;;6313549;22;20094;-85
2022/07/21 13:58:38;;;;;;;26.23;17.15;;;19.70;99.90;;;;;;6287298;22;20050;-84
2022/07/21 14:01:04;;;;;;;19.65;15.57;;;19.70;99.90;;;;;;6312590;22;20017;-87
2022/07/21 14:03:30;;;;;;;19.77;15.13;;;19.60;99.90;;;;;;6311808;22;20007;-87
2022/07/21 14:05:56;;;;;;;18.90;14.50;;;19.60;99.90;;;;;;6315013;22;20412;-87
2022/07/21 14:08:21;;;;;;;19.63;14.88;;;19.70;99.90;;;;;;6314173;22;20038;-86
2022/07/21 14:10:47;;;;;;;19.80;15.55;;;19.70;99.90;;;;;;6313469;22;20021;-85
2022/07/21 14:13:13;;;;;;;23.52;18.58;;;19.70;99.90;;;;;;6313418;22;20010;-89
2022/07/21 14:15:39;;;;;;;18.23;14.85;;;19.80;99.90;;;;;;6340777;22;20086;-87
2022/07/21 14:18:05;;;;;;;19.05;14.90;;;19.80;99.90;;;;;;6313290;22;20015;-87
2022/07/21 14:20:30;;;;;;;18.80;15.65;;;19.80;99.90;;;;;;6313384;22;20011;-88
2022/07/21 14:22:56;;;;;;;19.35;13.32;;;19.90;99.90;;;;;;6313621;22;20350;-85
2022/07/21 14:25:22;;;;;;;15.70;11.68;;;19.90;99.90;;;;;;6341287;22;20091;-87
2022/07/21 14:27:53;;;;;;;15.23;12.35;;;19.80;99.90;;;;;;6314253;22;20038;-87
2022/07/21 14:30:20;;;;;;;16.67;12.23;;;19.90;99.90;;;;;;6313794;22;20014;-88
2022/07/21 14:32:46;;;;;;;17.27;12.23;;;19.90;99.90;;;;;;6313886;22;20019;-88
2022/07/21 14:35:16;;;;;;;15.00;12.18;;;20.00;99.90;;;;;;6313840;22;20032;-86
2022/07/21 14:37:42;;;;;;;16.73;13.40;;;20.00;99.90;;;;;;6313863;22;20068;-85
2022/07/21 14:40:09;;;;;;;17.95;13.32;;;20.10;99.90;;;;;;6287879;22;20014;-86
2022/07/21 14:42:35;;;;;;;16.00;12.57;;;20.10;99.90;;;;;;6287770;22;20045;-86
2022/07/21 14:45:00;;;;;;;17.10;13.98;;;20.20;99.90;;;;;;6313536;22;20006;-85
2022/07/21 14:47:26;;;;;;;17.45;13.65;;;20.20;99.90;;;;;;6313697;22;20022;-85
2022/07/21 14:49:52;;;;;;;15.65;13.40;;;20.20;99.90;;;;;;6313882;22;20053;-86
2022/07/21 14:52:18;;;;;;;16.83;12.93;;;20.20;99.90;;;;;;6288007;22;20328;-87
2022/07/21 14:54:44;;;;;;;18.80;14.27;;;20.20;99.90;;;;;;6313704;22;20064;-86
2022/07/21 14:57:09;;;;;;;17.42;13.80;;;20.20;99.90;;;;;;6314499;22;20007;-86
2022/07/21 14:59:35;;;;;;;17.77;13.88;;;20.20;99.90;;;;;;6314319;22;20063;-86
2022/07/21 15:02:01;;;;;;;18.95;13.15;;;20.10;99.90;;;;;;6313100;22;20081;-85
2022/07/21 15:04:27;;;;;;;17.15;13.85;;;20.10;99.90;;;;;;6314138;22;20508;-86
2022/07/21 15:06:52;;;;;;;16.02;12.65;;;20.10;99.90;;;;;;6288257;22;20007;-86
2022/07/21 15:09:18;;;;;;;15.68;12.55;;;20.10;99.90;;;;;;6313739;22;20045;-84
2022/07/21 15:11:44;;;;;;;14.65;12.25;;;20.10;99.90;;;;;;6313970;22;20036;-89
2022/07/21 15:14:10;;;;;;;13.93;12.00;;;20.00;99.90;;;;;;6314168;22;20433;-86
2022/07/21 15:16:35;;;;;;;16.15;12.13;;;20.10;99.90;;;;;;6288326;22;20066;-86
2022/07/21 15:19:01;;;;;;;18.00;12.45;;;20.00;99.90;;;;;;6314357;22;20369;-86
2022/07/21 15:21:27;;;;;;;16.70;12.85;;;20.00;99.90;;;;;;6313685;22;20022;-86
2022/07/21 15:23:52;;;;;;;17.10;12.93;;;20.00;99.90;;;;;;6313050;22;20090;-85
2022/07/21 15:26:19;;;;;;;16.90;12.60;;;20.00;99.90;;;;;;6313871;22;20014;-86
2022/07/21 15:28:45;;;;;;;16.05;12.45;;;20.10;99.90;;;;;;6314086;22;20010;-87
2022/07/21 15:31:11;;;;;;;14.98;12.65;;;20.10;99.90;;;;;;6314156;22;20050;-86
2022/07/21 15:33:36;;;;;;;14.65;11.85;;;20.10;99.90;;;;;;6314385;22;20019;-88